Deerfield River @ West Deerfield, Ma

Deerfield River at West Deerfield
 Total Drainage Area: 558 sq. miles 
 Drainage Area Controlled by Corps Dams: 0 sq. miles (0%) 
 Warning Flow/Stage: 10,500 cfs / 7.0 feet 
 Flood Flow/Stage: 14,200 cfs / 8.0 feet 
Date Time
(Eastern)
Stage
(ft)
Flow
(cfs)
CSM
May-28 11:30 am 2.62 591 1.1
May-28 10:30 am 2.79 747 1.3
May-28 09:30 am 2.83 786 1.4
May-28 08:30 am 2.83 786 1.4
May-28 07:30 am 2.83 786 1.4
May-28 06:30 am 2.83 786 1.4
May-28 05:30 am 2.82 776 1.4
May-28 04:30 am 2.64 608 1.1
May-28 03:30 am 2.60 574 1.0
May-28 02:30 am 2.59 565 1.0
May-28 01:30 am 2.59 565 1.0
May-28 12:30 am 2.57 549 1.0
May-27 11:30 pm 2.23 307 .6
May-27 10:30 pm 2.21 295 .5
May-27 09:30 pm 2.21 295 .5
May-27 08:30 pm 2.21 295 .5
May-27 07:30 pm 2.26 325 .6
May-27 06:30 pm 2.46 462 .8
May-27 05:30 pm 2.53 516 .9
May-27 04:30 pm 2.53 516 .9
May-27 03:30 pm 2.53 516 .9
May-27 02:30 pm 2.56 540 1.0
May-27 01:30 pm 2.54 524 .9
May-27 12:30 pm 2.56 540 1.0
May-27 11:30 am 2.54 524 .9
Report Generated May 28, 2022 04:12 pm